Time;durP1;ratioP1;P1;durP2;ratioP2;P2;SDS_P1;SDS_P2;PMS_P1;PMS_P2;Temp;Humidity;BMP_temperature;BMP_pressure;BME280_temperature;BME280_humidity;BME280_pressure;Samples;Min_cycle;Max_cycle;Signal;HPM_P1;HPM_P2
2022/12/21 00:01:10;;;;;;;;;13.00;12.67;;;;;13.07;100.00;100777.59;5087900;27;45197;-77
2022/12/21 00:03:36;;;;;;;;;14.67;13.00;;;;;12.93;100.00;100743.81;5100326;27;47218;-77
2022/12/21 00:06:01;;;;;;;;;14.33;12.00;;;;;12.98;100.00;100752.06;5101734;27;45393;-77
2022/12/21 00:08:27;;;;;;;;;13.67;13.33;;;;;13.10;100.00;100755.88;5084832;27;45353;-78
2022/12/21 00:11:00;;;;;;;;;13.67;12.00;;;;;13.07;100.00;100755.41;5091304;27;45565;-77
2022/12/21 00:13:30;;;;;;;;;12.33;11.33;;;;;12.99;100.00;100738.53;5083013;27;46522;-78
2022/12/21 00:16:04;;;;;;;;;13.67;11.33;;;;;13.06;100.00;100745.78;5091780;27;45339;-77
2022/12/21 00:18:31;;;;;;;;;9.00;9.00;;;;;13.03;100.00;100743.50;5101634;27;45305;-77
2022/12/21 00:21:01;;;;;;;;;10.33;10.00;;;;;13.06;100.00;100748.44;5101618;27;45199;-77
2022/12/21 00:23:27;;;;;;;;;12.33;12.33;;;;;13.06;100.00;100729.78;5101415;27;47659;-77
2022/12/21 00:25:52;;;;;;;;;10.67;10.00;;;;;13.10;100.00;100750.53;5100051;27;45381;-77
2022/12/21 00:28:18;;;;;;;;;12.00;11.67;;;;;13.08;100.00;100749.09;5100841;27;45827;-77
2022/12/21 00:30:43;;;;;;;;;16.67;15.33;;;;;13.13;100.00;100762.66;5100690;27;45432;-77
2022/12/21 00:33:08;;;;;;;;;11.67;10.67;;;;;12.99;100.00;100746.53;5101003;27;46102;-78
2022/12/21 00:35:34;;;;;;;;;10.00;10.00;;;;;13.12;100.00;100764.53;5088489;27;45235;-78
2022/12/21 00:37:59;;;;;;;;;13.33;12.00;;;;;13.08;100.00;100747.22;5086324;27;45493;-77
2022/12/21 00:40:24;;;;;;;;;13.00;11.67;;;;;13.18;100.00;100770.94;5101094;27;45428;-77
2022/12/21 00:42:50;;;;;;;;;12.00;12.00;;;;;12.93;100.00;100727.81;5100718;27;45283;-76
2022/12/21 00:45:15;;;;;;;;;10.33;10.00;;;;;13.15;100.00;100747.31;5099720;27;45330;-77
2022/12/21 00:47:40;;;;;;;;;12.00;12.00;;;;;13.10;100.00;100744.38;5101312;27;45352;-77
2022/12/21 00:50:06;;;;;;;;;10.67;9.33;;;;;13.16;100.00;100753.44;5101036;27;45337;-77
2022/12/21 00:52:31;;;;;;;;;11.00;11.00;;;;;13.18;100.00;100762.09;5099386;27;46894;-77
2022/12/21 00:54:57;;;;;;;;;18.67;14.67;;;;;13.12;100.00;100753.88;5101081;27;45328;-78
2022/12/21 00:57:22;;;;;;;;;11.67;10.00;;;;;13.11;100.00;100754.84;5099480;27;45341;-77
2022/12/21 00:59:47;;;;;;;;;13.33;12.00;;;;;13.18;100.00;100764.78;5100376;27;45407;-76
2022/12/21 01:02:13;;;;;;;;;16.00;12.00;;;;;13.16;100.00;100759.63;5100734;27;45333;-77
2022/12/21 01:04:38;;;;;;;;;10.00;10.00;;;;;13.13;100.00;100755.50;5101093;27;45313;-77
2022/12/21 01:07:03;;;;;;;;;12.33;11.67;;;;;13.06;100.00;100746.63;5100572;27;45350;-76
2022/12/21 01:09:28;;;;;;;;;12.00;10.67;;;;;13.19;100.00;100761.06;5099220;27;47249;-77
2022/12/21 01:11:54;;;;;;;;;12.00;12.00;;;;;13.04;100.00;100739.78;5099130;27;46926;-76
2022/12/21 01:14:19;;;;;;;;;14.00;13.33;;;;;13.12;100.00;100753.88;5100526;27;45306;-77
2022/12/21 01:16:45;;;;;;;;;12.67;12.33;;;;;13.00;100.00;100728.69;5100536;27;45301;-77
2022/12/21 01:19:10;;;;;;;;;12.33;11.33;;;;;13.18;100.00;100754.09;5100566;27;45478;-77
2022/12/21 01:21:36;;;;;;;;;10.33;10.33;;;;;13.07;100.00;100755.41;5100074;27;45294;-79
2022/12/21 01:24:02;;;;;;;;;11.33;11.33;;;;;13.12;100.00;100771.69;5099903;27;45332;-77
2022/12/21 01:26:30;;;;;;;;;12.00;11.00;;;;;13.16;100.00;100770.28;5100222;27;45362;-77
2022/12/21 01:28:59;;;;;;;;;14.67;14.33;;;;;13.15;100.00;100763.31;5095577;27;47158;-77
2022/12/21 01:31:24;;;;;;;;;7.00;6.67;;;;;13.16;100.00;100769.47;5097309;27;47828;-78
2022/12/21 01:33:50;;;;;;;;;12.00;11.33;;;;;13.22;100.00;100780.22;5100331;27;45269;-77
2022/12/21 01:36:17;;;;;;;;;13.00;11.00;;;;;13.26;100.00;100781.47;5098871;27;45501;-77
2022/12/21 01:38:44;;;;;;;;;11.00;11.00;;;;;13.16;100.00;100769.47;5098919;27;46590;-77
2022/12/21 01:41:18;;;;;;;;;10.67;10.67;;;;;13.22;100.00;100785.56;5098448;27;47334;-77
2022/12/21 01:43:43;;;;;;;;;11.67;11.00;;;;;13.28;100.00;100780.44;5100018;27;45418;-77
2022/12/21 01:46:41;;;;;;;;;14.00;11.00;;;;;13.21;100.00;100775.06;5100247;27;45271;-77
2022/12/21 01:49:09;;;;;;;;;11.00;11.00;;;;;13.26;100.00;100776.13;5100127;27;45455;-76
2022/12/21 01:51:36;;;;;;;;;9.00;9.00;;;;;13.19;100.00;100777.94;5089449;27;45424;-77
2022/12/21 01:54:11;;;;;;;;;10.00;9.33;;;;;13.21;100.00;100788.41;5082608;27;45805;-77
2022/12/21 01:56:39;;;;;;;;;24.00;22.67;;;;;13.23;100.00;100791.72;5099966;27;45305;-77
2022/12/21 01:59:14;;;;;;;;;9.67;9.67;;;;;13.23;100.00;100797.88;5099704;27;45229;-77
2022/12/21 02:01:39;;;;;;;;;13.00;13.00;;;;;13.21;100.00;100796.41;5095510;27;48200;-77
2022/12/21 02:04:06;;;;;;;;;12.67;10.33;;;;;13.16;100.00;100788.97;5098632;27;45631;-77
2022/12/21 02:06:48;;;;;;;;;9.33;9.33;;;;;13.24;100.00;100799.53;5098523;27;45414;-77
2022/12/21 02:09:14;;;;;;;;;10.00;9.33;;;;;13.20;100.00;100792.09;5107738;27;46163;-77
2022/12/21 02:11:40;;;;;;;;;10.67;9.33;;;;;13.16;100.00;100782.81;5103593;27;45302;-77
2022/12/21 02:14:15;;;;;;;;;9.33;9.00;;;;;13.19;100.00;100793.09;5090426;27;45259;-77
2022/12/21 02:16:53;;;;;;;;;12.33;11.00;;;;;13.18;100.00;100786.13;5095806;27;45189;-77
2022/12/21 02:19:27;;;;;;;;;9.33;9.33;;;;;13.18;100.00;100789.63;5087529;27;45405;-77
2022/12/21 02:22:00;;;;;;;;;12.00;10.00;;;;;13.17;100.00;100773.81;5098248;27;48567;-77
2022/12/21 02:24:46;;;;;;;;;8.33;7.33;;;;;13.16;100.00;100788.13;5099454;27;45453;-77
2022/12/21 02:27:27;;;;;;;;;11.67;11.67;;;;;13.16;100.00;100788.97;5098322;27;45434;-77
2022/12/21 02:30:10;;;;;;;;;11.00;11.00;;;;;13.17;100.00;100785.28;5098664;27;45376;-77
2022/12/21 02:32:36;;;;;;;;;11.67;10.00;;;;;13.15;100.00;100784.66;5099355;27;46300;-77
2022/12/21 02:35:39;;;;;;;;;11.00;11.00;;;;;13.13;100.00;100784.00;5095120;27;46149;-77
2022/12/21 02:38:07;;;;;;;;;11.33;11.33;;;;;13.12;100.00;100793.88;5040035;28;45484;-78
2022/12/21 02:40:45;;;;;;;;;11.00;11.00;;;;;13.00;100.00;100777.53;5083968;27;46128;-77
2022/12/21 02:46:18;;;;;;;;;13.00;11.67;;;;;13.05;100.00;100797.50;5103009;27;45347;-77
2022/12/21 02:49:04;;;;;;;;;12.00;11.00;;;;;13.08;100.00;100802.44;5102587;27;45355;-77
2022/12/21 02:52:07;;;;;;;;;9.67;9.67;;;;;13.00;100.00;100777.53;5082509;27;45421;-77
2022/12/21 02:54:36;;;;;;;;;13.00;12.00;;;;;13.06;100.00;100793.81;5086303;27;46844;-77
2022/12/21 02:57:02;;;;;;;;;11.33;11.00;;;;;13.07;100.00;100793.63;5097803;27;45311;-77
2022/12/21 02:59:32;;;;;;;;;8.00;7.67;;;;;12.93;100.00;100775.81;5102883;27;45456;-77
2022/12/21 03:02:03;;;;;;;;;12.33;10.33;;;;;13.09;100.00;100801.44;5101221;27;47007;-77
2022/12/21 03:04:37;;;;;;;;;11.67;11.00;;;;;13.02;100.00;100788.00;5102723;27;46153;-77
2022/12/21 03:07:18;;;;;;;;;12.67;11.00;;;;;13.05;100.00;100800.97;5101034;27;45724;-77
2022/12/21 03:09:55;;;;;;;;;11.00;11.00;;;;;13.08;100.00;100797.94;5102660;27;45364;-77
2022/12/21 03:12:29;;;;;;;;;13.00;12.33;;;;;13.09;100.00;100817.44;5102326;27;45304;-77
2022/12/21 03:15:13;;;;;;;;;12.67;12.67;;;;;13.08;100.00;100811.25;5100899;27;48107;-77
2022/12/21 03:17:50;;;;;;;;;12.67;12.00;;;;;13.09;100.00;100822.78;5102658;27;45275;-77
2022/12/21 03:20:25;;;;;;;;;11.67;11.67;;;;;13.08;100.00;100826.47;5102299;27;45384;-77
2022/12/21 03:23:01;;;;;;;;;13.67;13.67;;;;;13.07;100.00;100838.13;5102331;27;45372;-77
2022/12/21 03:25:33;;;;;;;;;12.67;12.33;;;;;13.02;100.00;100840.56;5101099;27;47696;-77
2022/12/21 03:28:04;;;;;;;;;11.00;11.00;;;;;12.95;100.00;100837.78;5100219;27;45286;-77
2022/12/21 03:30:37;;;;;;;;;12.33;11.00;;;;;12.83;100.00;100824.97;5102544;27;45283;-77
2022/12/21 03:33:09;;;;;;;;;10.00;10.00;;;;;12.81;100.00;100831.50;5100758;27;46332;-77
2022/12/21 03:35:45;;;;;;;;;9.00;9.00;;;;;12.68;100.00;100818.81;5102206;27;45681;-77
2022/12/21 03:38:19;;;;;;;;;10.00;10.00;;;;;12.71;100.00;100834.44;5101010;27;46181;-77
2022/12/21 03:40:51;;;;;;;;;11.33;9.33;;;;;12.68;100.00;100827.66;5102151;27;45243;-77
2022/12/21 03:43:25;;;;;;;;;10.00;10.00;;;;;12.57;100.00;100818.28;5102112;27;45215;-77
2022/12/21 03:46:01;;;;;;;;;11.67;9.33;;;;;12.58;100.00;100832.44;5100350;27;47104;-77
2022/12/21 03:48:39;;;;;;;;;8.00;7.67;;;;;12.49;100.00;100826.38;5101508;27;45217;-77
2022/12/21 03:51:13;;;;;;;;;7.33;7.00;;;;;12.31;100.00;100821.41;5102169;27;45265;-77
2022/12/21 03:53:47;;;;;;;;;9.00;9.00;;;;;12.19;100.00;100829.88;5101838;27;45229;-77
2022/12/21 03:56:21;;;;;;;;;8.00;8.00;;;;;12.18;100.00;100838.06;5101814;27;45232;-77
2022/12/21 03:58:47;;;;;;;;;5.33;5.00;;;;;12.15;100.00;100836.56;5100037;27;45435;-77
2022/12/21 04:01:50;;;;;;;;;7.00;7.00;;;;;12.20;100.00;100854.66;5102272;27;45205;-78
2022/12/21 04:04:31;;;;;;;;;7.00;5.33;;;;;12.13;100.00;100846.59;5101952;27;45962;-78
2022/12/21 04:07:00;;;;;;;;;4.67;4.67;;;;;12.15;100.00;100852.56;5098072;27;45470;-77
2022/12/21 04:09:25;;;;;;;;;3.00;3.00;;;;;12.13;100.00;100857.25;5100274;27;45919;-76
2022/12/21 04:12:36;;;;;;;;;4.33;3.67;;;;;12.06;100.00;100846.44;5100118;27;45330;-76
2022/12/21 04:14:36;;;;;;;;;3.00;3.00;;;;;12.04;100.00;100826.34;5093901;27;45148;-77
2022/12/21 04:17:02;;;;;;;;;2.67;2.67;;;;;11.95;100.00;100826.44;5100086;27;47238;-76
2022/12/21 04:28:06;;;;;;;;;3.00;3.00;;;;;11.88;100.00;100838.78;5101492;27;45251;-76
2022/12/21 04:30:25;;;;;;;;;4.33;3.67;;;;;11.58;100.00;100820.91;5091937;27;45325;-77
2022/12/21 04:32:50;;;;;;;;;4.00;4.00;;;;;11.57;100.00;100851.19;5097255;27;45161;-77
2022/12/21 04:35:15;;;;;;;;;5.00;3.00;;;;;11.53;100.00;100860.56;5101342;27;45194;-77
2022/12/21 04:37:41;;;;;;;;;6.33;6.33;;;;;11.42;100.00;100856.47;5099990;27;48143;-76
2022/12/21 04:40:07;;;;;;;;;5.67;4.67;;;;;11.40;100.00;100861.13;5099823;27;45779;-77
2022/12/21 04:42:33;;;;;;;;;4.33;3.00;;;;;11.32;100.00;100872.66;5101157;27;45400;-76
2022/12/21 04:44:58;;;;;;;;;6.67;6.00;;;;;11.26;100.00;100872.53;5101197;27;45401;-77
2022/12/21 04:47:24;;;;;;;;;5.00;5.00;;;;;11.25;100.00;100861.06;5101124;27;45283;-77
2022/12/21 04:49:50;;;;;;;;;5.00;5.00;;;;;11.20;100.00;100864.25;5101277;27;45280;-77
2022/12/21 04:52:16;;;;;;;;;5.00;5.00;;;;;11.17;100.00;100855.78;5101102;27;45478;-76
2022/12/21 04:54:41;;;;;;;;;4.00;3.67;;;;;11.27;100.00;100864.38;5099932;27;46784;-77
2022/12/21 04:57:07;;;;;;;;;5.00;5.00;;;;;11.30;100.00;100863.19;5100748;27;46079;-76
2022/12/21 04:59:32;;;;;;;;;5.00;4.00;;;;;11.36;100.00;100873.97;5094972;27;45399;-76
2022/12/21 05:01:57;;;;;;;;;4.67;4.67;;;;;11.38;100.00;100876.47;5094187;27;45681;-76
2022/12/21 05:04:23;;;;;;;;;3.00;3.00;;;;;11.42;100.00;100871.59;5088535;27;45895;-77
2022/12/21 05:06:48;;;;;;;;;6.00;4.33;;;;;11.43;100.00;100875.94;5098437;27;45420;-77
2022/12/21 05:09:14;;;;;;;;;4.67;4.67;;;;;11.40;100.00;100874.44;5089905;27;45355;-76
2022/12/21 05:11:39;;;;;;;;;4.00;4.00;;;;;11.29;100.00;100867.69;5099198;27;45228;-77
2022/12/21 05:14:04;;;;;;;;;3.67;3.33;;;;;11.41;100.00;100883.25;5100723;27;45363;-76
2022/12/21 05:16:30;;;;;;;;;4.00;3.67;;;;;11.35;100.00;100868.81;5100298;27;45147;-77
2022/12/21 05:18:56;;;;;;;;;6.00;6.00;;;;;11.40;100.00;100873.63;5100634;27;45399;-77
2022/12/21 05:21:22;;;;;;;;;5.33;5.33;;;;;11.33;100.00;100868.16;5099452;27;45452;-76
2022/12/21 05:23:47;;;;;;;;;4.33;4.33;;;;;11.34;100.00;100875.97;5092458;27;45431;-77
2022/12/21 05:26:13;;;;;;;;;5.00;5.00;;;;;11.22;100.00;100869.38;5095297;27;46335;-77
2022/12/21 05:28:39;;;;;;;;;6.67;5.33;;;;;11.27;100.00;100874.19;5100539;27;45436;-77
2022/12/21 05:31:05;;;;;;;;;6.33;6.00;;;;;11.23;100.00;100871.88;5100531;27;45397;-76
2022/12/21 05:33:30;;;;;;;;;5.00;5.00;;;;;11.26;100.00;100869.88;5100627;27;45600;-76
2022/12/21 05:35:56;;;;;;;;;7.00;7.00;;;;;11.11;100.00;100854.66;5100101;27;45312;-77
2022/12/21 05:38:21;;;;;;;;;6.33;6.33;;;;;11.16;100.00;100867.44;5091888;27;45333;-77
2022/12/21 05:40:48;;;;;;;;;7.33;7.33;;;;;11.19;100.00;100880.38;5095100;27;45302;-77
2022/12/21 05:43:13;;;;;;;;;6.67;6.00;;;;;11.10;100.00;100874.28;5099001;27;47355;-76
2022/12/21 05:45:39;;;;;;;;;6.67;6.67;;;;;11.03;100.00;100874.16;5100082;27;45258;-77
2022/12/21 05:48:04;;;;;;;;;4.00;4.00;;;;;11.12;100.00;100885.56;5100139;27;45288;-77
2022/12/21 05:50:29;;;;;;;;;7.33;7.33;;;;;11.09;100.00;100892.09;5098769;27;45651;-76
2022/12/21 05:52:55;;;;;;;;;8.00;8.00;;;;;11.04;100.00;100889.09;5100194;27;45337;-77
2022/12/21 05:55:20;;;;;;;;;7.00;6.00;;;;;10.98;100.00;100877.34;5100108;27;46221;-77
2022/12/21 05:57:46;;;;;;;;;11.00;11.00;;;;;11.09;100.00;100899.22;5098572;27;45862;-76
2022/12/21 06:00:11;;;;;;;;;8.67;8.00;;;;;10.95;100.00;100887.47;5100107;27;45285;-76
2022/12/21 06:02:37;;;;;;;;;7.00;7.00;;;;;10.89;100.00;100885.53;5100065;27;45544;-77
2022/12/21 06:05:03;;;;;;;;;8.00;6.33;;;;;10.86;100.00;100894.66;5099882;27;45479;-77
2022/12/21 06:07:29;;;;;;;;;6.00;6.00;;;;;10.73;100.00;100890.72;5099870;27;45277;-77
2022/12/21 06:09:54;;;;;;;;;6.00;6.00;;;;;10.72;100.00;100893.56;5099659;27;45338;-77
2022/12/21 06:12:20;;;;;;;;;6.00;6.00;;;;;10.66;100.00;100903.06;5094864;27;47088;-77
2022/12/21 06:14:45;;;;;;;;;3.00;3.00;;;;;10.52;100.00;100879.81;5091639;27;47189;-77
2022/12/21 06:17:10;;;;;;;;;5.00;5.00;;;;;10.50;100.00;100895.13;5087459;27;45335;-77
2022/12/21 06:19:36;;;;;;;;;6.00;5.00;;;;;10.38;100.00;100887.47;5098491;27;45450;-77
2022/12/21 06:22:01;;;;;;;;;6.67;6.67;;;;;10.44;100.00;100897.41;5099631;27;45310;-77
2022/12/21 06:24:26;;;;;;;;;5.67;5.00;;;;;10.42;100.00;100902.06;5090830;27;45661;-77
2022/12/21 06:26:52;;;;;;;;;5.00;4.00;;;;;10.38;100.00;100914.03;5081285;27;45274;-77
2022/12/21 06:29:17;;;;;;;;;5.00;5.00;;;;;10.33;100.00;100911.88;5078926;27;45260;-76
2022/12/21 06:31:42;;;;;;;;;7.33;6.00;;;;;10.19;100.00;100900.13;5091783;27;46216;-77
2022/12/21 06:34:12;;;;;;;;;6.67;5.00;;;;;10.21;100.00;100910.59;5099827;27;45366;-78
2022/12/21 06:36:37;;;;;;;;;5.00;5.00;;;;;10.05;100.00;100898.97;5099507;27;45290;-77
2022/12/21 06:39:02;;;;;;;;;7.00;7.00;;;;;10.05;100.00;100914.06;5099162;27;45256;-78
2022/12/21 06:41:28;;;;;;;;;7.33;6.33;;;;;10.03;100.00;100924.03;5097911;27;45929;-78
2022/12/21 06:43:54;;;;;;;;;8.67;8.33;;;;;9.87;100.00;100915.06;5097650;27;47157;-77
2022/12/21 06:46:19;;;;;;;;;9.33;9.33;;;;;9.90;100.00;100930.66;5099699;27;45658;-77
2022/12/21 06:48:45;;;;;;;;;7.33;7.33;;;;;9.72;100.00;100907.75;5099569;27;45359;-77
2022/12/21 06:51:15;;;;;;;;;9.00;9.00;;;;;9.79;100.00;100923.03;5099599;27;45482;-77
2022/12/21 06:53:42;;;;;;;;;10.33;9.33;;;;;9.75;100.00;100934.97;5094996;27;47108;-77
2022/12/21 06:56:11;;;;;;;;;9.33;8.67;;;;;9.71;100.00;100934.47;5091437;27;45213;-77
2022/12/21 06:58:37;;;;;;;;;14.33;14.00;;;;;9.61;100.00;100924.00;5092611;27;45362;-77
2022/12/21 07:01:26;;;;;;;;;11.67;11.67;;;;;9.59;100.00;100936.59;5097764;27;46444;-77
2022/12/21 07:03:52;;;;;;;;;10.67;9.00;;;;;9.54;100.00;100937.09;5097709;27;47229;-76
2022/12/21 07:06:20;;;;;;;;;11.33;11.33;;;;;9.51;100.00;100941.88;5097801;27;45447;-77
2022/12/21 07:08:47;;;;;;;;;14.67;14.67;;;;;9.37;100.00;100928.25;5099050;27;45458;-78
2022/12/21 07:11:15;;;;;;;;;14.67;13.67;;;;;9.37;100.00;100938.03;5098819;27;45405;-78
2022/12/21 07:13:42;;;;;;;;;12.33;12.33;;;;;9.38;100.00;100951.13;5097329;27;47432;-78
2022/12/21 07:16:09;;;;;;;;;13.00;13.00;;;;;9.34;100.00;100949.81;5098974;27;45258;-78
2022/12/21 07:18:35;;;;;;;;;13.67;12.67;;;;;9.24;100.00;100939.31;5097487;27;45559;-78
2022/12/21 07:21:03;;;;;;;;;14.33;11.00;;;;;9.31;100.00;100960.72;5098695;27;45418;-78
2022/12/21 07:23:30;;;;;;;;;7.33;7.33;;;;;9.31;100.00;100963.38;5100959;27;46127;-78
2022/12/21 07:25:56;;;;;;;;;11.00;10.00;;;;;9.28;100.00;100955.75;5101044;27;45263;-78
2022/12/21 07:28:22;;;;;;;;;16.00;16.00;;;;;9.31;100.00;100966.03;5097456;27;45330;-78
2022/12/21 07:30:48;;;;;;;;;15.00;15.00;;;;;9.40;100.00;100966.91;5088889;27;46290;-78
2022/12/21 07:33:18;;;;;;;;;16.67;15.00;;;;;9.38;100.00;100956.44;5088159;27;48470;-78
2022/12/21 07:35:44;;;;;;;;;14.67;13.00;;;;;9.44;100.00;100954.97;5088684;27;45324;-77
2022/12/21 07:38:10;;;;;;;;;12.67;10.00;;;;;9.56;100.00;100961.63;5101277;27;45273;-77
2022/12/21 07:40:36;;;;;;;;;10.67;10.00;;;;;9.58;100.00;100961.47;5101558;27;45344;-78
2022/12/21 07:43:07;;;;;;;;;9.67;9.67;;;;;9.59;100.00;100952.53;5101998;27;45299;-78
2022/12/21 07:45:32;;;;;;;;;9.33;9.33;;;;;9.63;100.00;100955.66;5102158;27;45391;-76
2022/12/21 07:47:58;;;;;;;;;12.33;12.33;;;;;9.62;100.00;100951.34;5098152;27;45377;-76
2022/12/21 07:50:23;;;;;;;;;14.00;11.00;;;;;9.67;100.00;100955.19;5097225;27;47450;-77
2022/12/21 07:52:48;;;;;;;;;10.33;10.00;;;;;9.67;100.00;100957.81;5102328;27;45414;-76
2022/12/21 07:55:14;;;;;;;;;14.33;14.33;;;;;9.78;100.00;100979.75;5101068;27;45389;-76
2022/12/21 07:57:39;;;;;;;;;18.33;17.00;;;;;9.75;100.00;100972.13;5089043;27;45333;-77
2022/12/21 08:00:05;;;;;;;;;15.33;13.33;;;;;9.79;100.00;100981.44;5101584;27;45277;-76
2022/12/21 08:02:30;;;;;;;;;12.00;12.00;;;;;9.83;100.00;100988.91;5096352;27;45325;-76
2022/12/21 08:04:56;;;;;;;;;14.67;14.00;;;;;9.76;100.00;100968.47;5095369;27;45164;-77
2022/12/21 08:07:21;;;;;;;;;9.67;8.67;;;;;9.80;100.00;100989.22;5094820;27;45336;-77
2022/12/21 08:09:46;;;;;;;;;15.67;15.67;;;;;9.84;100.00;100995.03;5093989;27;47317;-77
2022/12/21 08:12:12;;;;;;;;;11.67;9.67;;;;;9.83;100.00;100996.03;5101322;27;46577;-77
2022/12/21 08:14:37;;;;;;;;;12.67;12.67;;;;;9.85;100.00;101000.16;5101393;27;45204;-76
2022/12/21 08:17:02;;;;;;;;;11.67;11.67;;;;;9.78;100.00;101000.97;5089884;27;45312;-77
2022/12/21 08:19:28;;;;;;;;;10.00;10.00;;;;;9.71;100.00;100988.38;5084611;27;46514;-78
2022/12/21 08:21:53;;;;;;;;;13.00;12.33;;;;;9.73;100.00;100991.69;5099344;27;46843;-78
2022/12/21 08:24:19;;;;;;;;;9.00;8.67;;;;;9.69;100.00;100993.00;5104352;27;45225;-77
2022/12/21 08:26:44;;;;;;;;;15.33;14.67;;;;;9.63;100.00;100991.00;5089689;27;45820;-78
2022/12/21 08:29:13;;;;;;;;;15.67;14.67;;;;;9.79;100.00;101011.44;5098278;27;45580;-77
2022/12/21 08:31:39;;;;;;;;;12.33;12.33;;;;;9.77;100.00;101013.44;5100926;27;46436;-77
2022/12/21 08:34:05;;;;;;;;;13.00;13.00;;;;;9.67;100.00;101000.28;5102875;27;45324;-78
2022/12/21 08:36:30;;;;;;;;;12.00;10.67;;;;;9.72;100.00;101000.66;5105452;27;45244;-78
2022/12/21 08:38:56;;;;;;;;;14.00;14.00;;;;;9.69;100.00;100998.31;5104078;27;45623;-79
2022/12/21 08:41:21;;;;;;;;;11.67;11.67;;;;;9.67;100.00;101002.13;5104455;27;45427;-78
2022/12/21 08:43:46;;;;;;;;;11.00;11.00;;;;;9.55;100.00;100975.88;5102649;27;45469;-78
2022/12/21 08:46:12;;;;;;;;;8.33;8.33;;;;;9.69;100.00;101000.97;5105271;27;45259;-78
2022/12/21 08:48:38;;;;;;;;;13.33;11.00;;;;;9.62;100.00;100992.00;5104435;27;45488;-78
2022/12/21 08:51:07;;;;;;;;;10.33;10.33;;;;;9.69;100.00;100989.50;5100742;27;46537;-78
2022/12/21 08:53:32;;;;;;;;;12.67;11.33;;;;;9.47;100.00;100944.88;5098397;27;45511;-78
2022/12/21 08:55:58;;;;;;;;;13.33;11.33;;;;;9.76;100.00;100987.06;5099841;27;45392;-78
2022/12/21 08:58:24;;;;;;;;;14.33;14.33;;;;;9.78;100.00;100993.00;5095341;27;46353;-78
2022/12/21 09:00:53;;;;;;;;;12.67;11.67;;;;;9.81;100.00;100990.03;5101766;27;47183;-78
2022/12/21 09:03:20;;;;;;;;;16.67;14.33;;;;;9.83;100.00;101002.19;5109458;27;45217;-78
2022/12/21 09:05:45;;;;;;;;;11.33;11.33;;;;;9.92;100.00;101007.50;5102242;27;45332;-78
2022/12/21 09:08:11;;;;;;;;;12.00;12.00;;;;;9.97;100.00;101013.16;5104442;27;45476;-78
2022/12/21 09:10:36;;;;;;;;;12.67;11.67;;;;;9.95;100.00;101005.34;5103159;27;46461;-78
2022/12/21 09:13:02;;;;;;;;;12.00;10.67;;;;;10.03;100.00;100998.38;5098214;27;45316;-78
2022/12/21 09:15:27;;;;;;;;;13.67;12.00;;;;;10.08;100.00;101001.38;5103140;27;45357;-78
2022/12/21 09:17:53;;;;;;;;;9.67;8.67;;;;;10.10;100.00;100991.41;5102749;27;45416;-78
2022/12/21 09:20:18;;;;;;;;;9.33;9.33;;;;;10.21;100.00;100998.25;5095486;27;45373;-78
2022/12/21 09:22:43;;;;;;;;;9.67;7.33;;;;;10.23;100.00;100986.44;5095780;27;45303;-78
2022/12/21 09:25:09;;;;;;;;;13.33;9.67;;;;;10.35;100.00;100996.72;5097320;27;45353;-79
2022/12/21 09:27:34;;;;;;;;;7.33;7.33;;;;;10.38;100.00;100999.06;5094115;27;45192;-78
2022/12/21 09:30:00;;;;;;;;;10.33;9.00;;;;;10.34;100.00;100987.94;5101455;27;46779;-78
2022/12/21 09:32:25;;;;;;;;;9.33;9.33;;;;;10.49;100.00;101011.22;5097255;27;45391;-78
2022/12/21 09:34:52;;;;;;;;;10.33;8.67;;;;;10.54;100.00;101014.19;5100604;27;45247;-78
2022/12/21 09:37:17;;;;;;;;;10.00;10.00;;;;;10.54;100.00;101006.22;5100853;27;45362;-78
2022/12/21 09:39:44;;;;;;;;;8.33;8.00;;;;;10.52;100.00;100994.94;5095454;27;47058;-78
2022/12/21 09:42:31;;;;;;;;;10.67;9.67;;;;;10.62;100.00;101007.22;5093518;27;45333;-78
2022/12/21 09:45:07;;;;;;;;;12.00;9.67;;;;;10.63;100.00;101004.41;5089166;27;45510;-78
2022/12/21 09:47:44;;;;;;;;;12.00;12.00;;;;;10.58;100.00;100994.28;5099934;27;47479;-78
2022/12/21 09:50:24;;;;;;;;;15.33;9.67;;;;;10.66;100.00;101005.88;5082335;27;48800;-78
2022/12/21 09:52:57;;;;;;;;;7.33;7.00;;;;;10.68;100.00;101001.22;5101078;27;45527;-78
2022/12/21 09:55:25;;;;;;;;;9.00;8.00;;;;;10.58;100.00;100983.63;5097841;27;45447;-78
2022/12/21 09:57:52;;;;;;;;;9.67;9.67;;;;;10.75;100.00;101026.16;5088382;27;45291;-78
2022/12/21 10:00:21;;;;;;;;;10.00;8.00;;;;;10.81;100.00;101025.44;5101697;27;45331;-79
2022/12/21 10:03:16;;;;;;;;;11.67;10.67;;;;;10.86;100.00;101022.28;5106506;27;45495;-78
2022/12/21 10:06:17;;;;;;;;;7.67;7.67;;;;;10.85;100.00;101016.16;5109865;27;45283;-79
2022/12/21 10:09:05;;;;;;;;;10.67;8.00;;;;;10.89;100.00;101018.47;5101929;27;46497;-79
2022/12/21 10:11:52;;;;;;;;;8.00;7.00;;;;;10.99;100.00;101033.22;5107849;27;48580;-78
2022/12/21 10:14:20;;;;;;;;;8.00;8.00;;;;;11.03;100.00;101023.09;5101463;27;45180;-79
2022/12/21 10:16:58;;;;;;;;;9.00;9.00;;;;;11.06;100.00;101033.41;5086494;27;45467;-78
2022/12/21 10:19:41;;;;;;;;;8.00;8.00;;;;;10.97;100.00;101010.47;5103736;27;45354;-78
2022/12/21 10:22:21;;;;;;;;;6.67;6.00;;;;;11.16;100.00;101038.50;5089750;27;46657;-78
2022/12/21 10:24:56;;;;;;;;;7.00;6.00;;;;;11.19;100.00;101035.50;5104534;27;45174;-77
2022/12/21 10:27:31;;;;;;;;;9.00;7.67;;;;;11.22;100.00;101037.84;5104762;27;45298;-77
2022/12/21 10:29:59;;;;;;;;;6.00;6.00;;;;;11.20;100.00;101018.53;5112431;27;45218;-77
2022/12/21 10:32:29;;;;;;;;;6.00;6.00;;;;;11.28;100.00;101011.56;5089174;27;46609;-78
2022/12/21 10:34:57;;;;;;;;;3.00;3.00;;;;;11.28;100.00;101015.03;5085531;27;45318;-79
2022/12/21 10:37:23;;;;;;;;;7.00;7.00;;;;;11.36;100.00;101016.84;5097241;27;45429;-78
2022/12/21 10:39:56;;;;;;;;;9.33;9.00;;;;;11.34;100.00;101008.19;5095938;27;45338;-78
2022/12/21 10:42:36;;;;;;;;;6.00;6.00;;;;;11.41;100.00;101011.84;5094177;27;47301;-79
2022/12/21 10:45:01;;;;;;;;;9.33;9.00;;;;;11.44;100.00;101000.81;5103890;27;45275;-79
2022/12/21 10:47:27;;;;;;;;;6.67;6.67;;;;;11.35;100.00;100977.94;5098712;27;45323;-78
2022/12/21 10:50:02;;;;;;;;;7.67;7.67;;;;;11.49;100.00;100993.16;5087696;27;46539;-78
2022/12/21 10:52:41;;;;;;;;;9.00;8.00;;;;;11.54;100.00;100981.97;5097665;27;47429;-79
2022/12/21 10:55:32;;;;;;;;;8.00;7.00;;;;;11.55;100.00;100973.00;5090099;27;45487;-79
2022/12/21 10:58:01;;;;;;;;;11.00;10.33;;;;;11.63;100.00;100980.09;5102606;27;45296;-79
2022/12/21 11:00:40;;;;;;;;;10.67;10.33;;;;;11.67;100.00;100985.91;5089789;27;46038;-77
2022/12/21 11:03:22;;;;;;;;;7.33;7.33;;;;;11.69;100.00;100976.75;5103717;27;46110;-77
2022/12/21 11:05:48;;;;;;;;;9.00;9.00;;;;;11.69;100.00;100951.94;5098768;27;45404;-77
2022/12/21 11:08:13;;;;;;;;;10.67;10.33;;;;;11.80;100.00;100964.03;5105665;27;45301;-78
2022/12/21 11:10:48;;;;;;;;;9.33;8.00;;;;;11.78;100.00;100952.72;5102790;27;45488;-78
2022/12/21 11:13:14;;;;;;;;;9.33;9.00;;;;;11.86;100.00;100955.34;5105445;27;45372;-78
2022/12/21 11:16:00;;;;;;;;;7.00;7.00;;;;;11.90;100.00;100945.97;5106207;27;45282;-79
2022/12/21 11:18:44;;;;;;;;;7.67;7.33;;;;;11.94;100.00;100941.13;5104876;27;45370;-78
2022/12/21 11:21:20;;;;;;;;;8.00;8.00;;;;;11.83;100.00;100923.72;5112338;27;47155;-79
2022/12/21 11:23:54;;;;;;;;;8.00;8.00;;;;;11.98;100.00;100929.91;5118134;27;46033;-79
2022/12/21 11:26:20;;;;;;;;;8.67;8.67;;;;;12.07;100.00;100929.91;5117341;27;45818;-79
2022/12/21 11:28:45;;;;;;;;;6.00;6.00;;;;;12.16;100.00;100935.97;5107981;27;45497;-78
2022/12/21 11:31:11;;;;;;;;;6.67;6.67;;;;;12.16;100.00;100926.16;5121852;27;45261;-78
2022/12/21 11:33:36;;;;;;;;;8.67;8.00;;;;;12.22;100.00;100927.28;5119276;27;45344;-78